createdAt,value
2018-08-11T00:00:34.208Z,51.10
2018-08-11T00:03:02.588Z,50.90
2018-08-11T00:05:31.128Z,50.90
2018-08-11T00:07:59.554Z,50.50
2018-08-11T00:10:27.965Z,49.70
2018-08-11T00:12:56.363Z,49.30
2018-08-11T00:15:24.736Z,49.40
2018-08-11T00:17:53.227Z,49.10
2018-08-11T00:20:24.197Z,49.20
2018-08-11T00:22:52.565Z,49.10
2018-08-11T00:25:20.971Z,49.00
2018-08-11T00:27:49.353Z,49.00
2018-08-11T00:30:18.858Z,49.30
2018-08-11T00:32:47.274Z,49.20
2018-08-11T00:35:16.065Z,49.50
2018-08-11T00:37:44.989Z,49.60
2018-08-11T00:40:15.398Z,50.30
2018-08-11T00:42:44.998Z,49.60
2018-08-11T00:45:14.272Z,49.70
2018-08-11T00:47:42.618Z,50.10
2018-08-11T00:50:15.706Z,49.80
2018-08-11T00:52:44.093Z,50.20
2018-08-11T00:55:13.654Z,50.90
2018-08-11T00:57:42.193Z,50.40
2018-08-11T01:00:17.313Z,50.80
2018-08-11T01:02:45.667Z,50.90
2018-08-11T01:05:15.955Z,51.50
2018-08-11T01:07:44.869Z,51.70
2018-08-11T01:10:13.892Z,51.50
2018-08-11T01:12:43.047Z,51.50
2018-08-11T01:15:13.993Z,51.30
2018-08-11T01:17:42.334Z,51.30
2018-08-11T01:20:11.613Z,51.30
2018-08-11T01:22:40.814Z,51.40
2018-08-11T01:25:09.819Z,51.20
2018-08-11T01:27:38.196Z,51.60
2018-08-11T01:30:11.173Z,51.40
2018-08-11T01:32:39.560Z,51.20
2018-08-11T01:35:08.787Z,51.40
2018-08-11T01:37:38.238Z,51.60
2018-08-11T01:40:07.608Z,51.30
2018-08-11T01:42:35.954Z,51.10
2018-08-11T01:45:04.841Z,51.00
2018-08-11T01:47:33.285Z,50.70
2018-08-11T01:50:01.612Z,50.40
2018-08-11T01:52:29.919Z,50.00
2018-08-11T01:54:58.261Z,50.40
2018-08-11T01:57:26.636Z,50.80
2018-08-11T01:59:55.009Z,51.40
2018-08-11T02:02:23.445Z,51.30
2018-08-11T02:04:51.811Z,51.50
2018-08-11T02:07:20.189Z,51.50
2018-08-11T02:09:48.544Z,51.50
2018-08-11T02:12:16.926Z,51.60
2018-08-11T02:14:45.888Z,51.90
2018-08-11T02:17:14.235Z,51.90
2018-08-11T02:19:42.605Z,52.10
2018-08-11T02:22:11.016Z,52.10
2018-08-11T02:24:39.421Z,52.10
2018-08-11T02:27:07.994Z,51.90
2018-08-11T02:29:36.416Z,51.70
2018-08-11T02:32:05.014Z,51.60
2018-08-11T02:34:33.321Z,50.60
2018-08-11T02:37:01.779Z,50.40
2018-08-11T02:39:30.131Z,50.60
2018-08-11T02:41:58.504Z,50.90
2018-08-11T02:44:26.871Z,51.00
2018-08-11T02:46:55.166Z,51.10
2018-08-11T02:49:23.541Z,51.10
2018-08-11T02:51:51.887Z,50.90
2018-08-11T02:54:20.217Z,50.60
2018-08-11T02:56:48.556Z,49.80
2018-08-11T02:59:21.253Z,49.70
2018-08-11T03:01:49.590Z,50.10
2018-08-11T03:04:17.909Z,50.20
2018-08-11T03:06:46.415Z,50.30
2018-08-11T03:09:14.736Z,50.20
2018-08-11T03:11:43.063Z,50.40
2018-08-11T03:14:11.573Z,50.50
2018-08-11T03:16:39.868Z,50.80
2018-08-11T03:19:08.181Z,50.40
2018-08-11T03:21:36.536Z,50.50
2018-08-11T03:24:04.976Z,50.70
2018-08-11T03:26:33.319Z,51.10
2018-08-11T03:29:01.665Z,51.00
2018-08-11T03:31:30.027Z,51.60
2018-08-11T03:33:58.409Z,51.40
2018-08-11T03:36:26.792Z,51.10
2018-08-11T03:38:55.135Z,51.00
2018-08-11T03:41:23.434Z,51.10
2018-08-11T03:43:51.762Z,51.20
2018-08-11T03:46:20.137Z,51.40
2018-08-11T03:48:48.454Z,51.50
2018-08-11T03:51:16.782Z,52.10
2018-08-11T03:53:45.419Z,52.20
2018-08-11T03:56:13.752Z,52.50
2018-08-11T03:58:42.086Z,52.80
2018-08-11T04:01:10.582Z,53.10
2018-08-11T04:03:38.930Z,53.50
2018-08-11T04:06:07.272Z,54.80
2018-08-11T04:08:35.665Z,54.70
2018-08-11T04:11:04.047Z,53.60
2018-08-11T04:13:32.508Z,53.20
2018-08-11T04:16:00.860Z,52.70
2018-08-11T04:18:29.250Z,51.60
2018-08-11T04:20:57.588Z,51.50
2018-08-11T04:23:25.962Z,51.40
2018-08-11T04:25:55.119Z,50.70
2018-08-11T04:28:23.450Z,50.60
2018-08-11T04:30:51.874Z,50.20
2018-08-11T04:33:20.249Z,50.20
2018-08-11T04:35:48.541Z,50.00
2018-08-11T04:38:16.926Z,50.00
2018-08-11T04:40:45.282Z,50.20
2018-08-11T04:43:13.647Z,50.30
2018-08-11T04:45:42.626Z,50.20
2018-08-11T04:48:10.958Z,50.00
2018-08-11T04:50:39.267Z,50.10
2018-08-11T04:53:07.614Z,49.90
2018-08-11T04:55:36.536Z,49.90
2018-08-11T04:58:04.884Z,50.10
2018-08-11T05:00:33.225Z,49.70
2018-08-11T05:03:01.519Z,49.70
2018-08-11T05:05:29.886Z,49.90
2018-08-11T05:07:58.196Z,49.80
2018-08-11T05:10:26.522Z,49.70
2018-08-11T05:12:54.868Z,49.50
2018-08-11T05:15:23.242Z,49.60
2018-08-11T05:17:51.564Z,49.70
2018-08-11T05:20:19.914Z,49.40
2018-08-11T05:22:48.258Z,49.50
2018-08-11T05:25:16.609Z,49.40
2018-08-11T05:27:44.962Z,50.30
2018-08-11T05:30:13.454Z,49.20
2018-08-11T05:32:42.384Z,48.80
2018-08-11T05:35:11.530Z,48.60
2018-08-11T05:37:39.935Z,49.50
2018-08-11T05:40:08.957Z,49.40
2018-08-11T05:42:37.286Z,48.80
2018-08-11T05:45:05.715Z,47.70
2018-08-11T05:47:34.038Z,48.60
2018-08-11T05:50:02.359Z,47.60
2018-08-11T05:52:30.677Z,48.00
2018-08-11T05:54:59.080Z,48.00
2018-08-11T05:57:27.435Z,48.30
2018-08-11T05:59:55.834Z,48.30
2018-08-11T06:02:24.154Z,48.00
2018-08-11T06:04:53.353Z,46.90
2018-08-11T06:07:21.710Z,46.60
2018-08-11T06:09:50.072Z,46.70
2018-08-11T06:12:18.476Z,46.80
2018-08-11T06:14:46.812Z,46.80
2018-08-11T06:17:15.243Z,46.70
2018-08-11T06:19:43.595Z,46.70
2018-08-11T06:22:12.018Z,46.70
2018-08-11T06:24:40.360Z,46.80
2018-08-11T06:27:08.726Z,46.70
2018-08-11T06:29:37.078Z,46.90
2018-08-11T06:32:06.061Z,47.00
2018-08-11T06:34:34.438Z,45.80
2018-08-11T06:37:02.810Z,46.20
2018-08-11T06:39:31.212Z,46.60
2018-08-11T06:41:59.547Z,47.10
2018-08-11T06:44:27.981Z,47.10
2018-08-11T06:46:56.364Z,46.20
2018-08-11T06:49:24.710Z,46.80
2018-08-11T06:51:53.060Z,45.10
2018-08-11T06:54:21.485Z,45.80
2018-08-11T06:56:49.858Z,44.90
2018-08-11T06:59:18.213Z,45.40
2018-08-11T07:01:46.717Z,45.70
2018-08-11T07:04:15.076Z,46.30
2018-08-11T07:06:43.600Z,46.90
2018-08-11T07:09:11.962Z,46.00
2018-08-11T07:11:40.262Z,45.40
2018-08-11T07:14:08.629Z,44.60
2018-08-11T07:16:37.167Z,45.00
2018-08-11T07:19:05.837Z,43.60
2018-08-11T07:21:34.235Z,44.30
2018-08-11T07:24:02.575Z,44.80
2018-08-11T07:26:31.331Z,44.90
2018-08-11T07:28:59.623Z,44.60
2018-08-11T07:31:27.979Z,44.00
2018-08-11T07:33:57.123Z,43.90
2018-08-11T07:36:25.635Z,43.50
2018-08-11T07:38:53.977Z,43.20
2018-08-11T07:41:22.433Z,43.30
2018-08-11T07:43:50.768Z,42.50
2018-08-11T07:46:19.124Z,41.90
2018-08-11T07:48:47.500Z,42.20
2018-08-11T07:51:15.877Z,42.40
2018-08-11T07:53:44.490Z,42.30
2018-08-11T07:56:12.963Z,40.90
2018-08-11T07:58:41.647Z,41.70
2018-08-11T08:01:10.101Z,41.20
2018-08-11T08:03:38.519Z,40.10
2018-08-11T08:06:06.976Z,41.30
2018-08-11T08:08:35.450Z,40.20
2018-08-11T08:11:03.813Z,40.20
2018-08-11T08:13:32.325Z,40.60
2018-08-11T08:16:00.664Z,40.00
2018-08-11T08:18:29.020Z,39.60
2018-08-11T08:20:57.362Z,39.60
2018-08-11T08:23:25.697Z,38.90
2018-08-11T08:25:54.096Z,38.50
2018-08-11T08:28:22.458Z,39.30
2018-08-11T08:30:51.514Z,39.50
2018-08-11T08:33:19.916Z,38.50
2018-08-11T08:35:48.269Z,37.00
2018-08-11T08:38:16.894Z,35.90
2018-08-11T08:40:45.433Z,36.40
2018-08-11T08:43:14.036Z,37.00
2018-08-11T08:45:43.139Z,36.00
2018-08-11T08:48:11.598Z,36.20
2018-08-11T08:50:40.107Z,35.60
2018-08-11T08:53:08.506Z,36.10
2018-08-11T08:55:37.128Z,36.20
2018-08-11T08:58:05.648Z,34.90
2018-08-11T09:00:34.050Z,35.20
2018-08-11T09:03:02.626Z,35.40
2018-08-11T09:05:31.011Z,35.90
2018-08-11T09:07:59.417Z,36.40
2018-08-11T09:10:27.865Z,35.40
2018-08-11T09:12:56.260Z,34.80
2018-08-11T09:15:24.606Z,34.90
2018-08-11T09:17:54.090Z,33.10
2018-08-11T09:20:22.449Z,33.90
2018-08-11T09:22:50.817Z,33.80
2018-08-11T09:25:19.909Z,33.60
2018-08-11T09:27:48.238Z,33.70
2018-08-11T09:30:16.640Z,31.50
2018-08-11T09:32:44.999Z,31.20
2018-08-11T09:35:13.349Z,31.80
2018-08-11T09:37:41.676Z,32.80
2018-08-11T09:40:10.145Z,32.50
2018-08-11T09:42:38.817Z,32.20
2018-08-11T09:45:07.393Z,32.40
2018-08-11T09:47:35.849Z,32.70
2018-08-11T09:50:04.294Z,32.70
2018-08-11T09:52:32.617Z,33.10
2018-08-11T09:55:00.967Z,33.70
2018-08-11T09:57:29.334Z,34.60
2018-08-11T09:59:57.676Z,35.00
2018-08-11T10:02:27.381Z,35.60
2018-08-11T10:04:55.688Z,35.60
2018-08-11T10:07:24.092Z,33.90
2018-08-11T10:09:53.234Z,33.60
2018-08-11T10:12:21.832Z,33.50
2018-08-11T10:14:50.199Z,32.10
2018-08-11T10:17:18.580Z,30.70
2018-08-11T10:19:46.958Z,30.80
2018-08-11T10:22:15.384Z,30.90
2018-08-11T10:24:43.707Z,30.80
2018-08-11T10:27:12.755Z,31.00
2018-08-11T10:29:41.135Z,31.30
2018-08-11T10:32:09.608Z,30.70
2018-08-11T10:34:37.948Z,31.10
2018-08-11T10:37:07.215Z,31.00
2018-08-11T10:39:35.574Z,32.20
2018-08-11T10:42:03.933Z,32.80
2018-08-11T10:44:32.273Z,32.10
2018-08-11T10:47:01.341Z,31.90
2018-08-11T10:49:29.752Z,32.70
2018-08-11T10:51:58.096Z,32.20
2018-08-11T10:54:26.424Z,32.50
2018-08-11T10:56:54.766Z,31.40
2018-08-11T10:59:23.137Z,31.10
2018-08-11T11:01:51.507Z,30.50
2018-08-11T11:04:19.855Z,30.40
2018-08-11T11:06:48.182Z,29.50
2018-08-11T11:09:16.995Z,28.80
2018-08-11T11:11:45.311Z,29.00
2018-08-11T11:14:13.688Z,28.40
2018-08-11T11:16:42.010Z,28.70
2018-08-11T11:19:10.324Z,28.30
2018-08-11T11:21:38.826Z,27.00
2018-08-11T11:24:08.411Z,26.20
2018-08-11T11:26:36.751Z,27.00
2018-08-11T11:29:05.109Z,26.50
2018-08-11T11:31:33.475Z,25.10
2018-08-11T11:34:01.817Z,25.40
2018-08-11T11:36:30.247Z,26.10
2018-08-11T11:38:58.584Z,25.70
2018-08-11T11:41:27.621Z,25.70
2018-08-11T11:43:55.956Z,25.00
2018-08-11T11:46:24.279Z,24.00
2018-08-11T11:48:52.633Z,24.60
2018-08-11T11:51:20.980Z,25.10
2018-08-11T11:53:49.345Z,23.90
2018-08-11T11:56:17.795Z,24.50
2018-08-11T11:58:46.157Z,24.50
2018-08-11T12:01:14.985Z,24.70
2018-08-11T12:03:43.339Z,24.30
2018-08-11T12:06:11.716Z,24.50
2018-08-11T12:08:40.033Z,23.70
2018-08-11T12:11:08.392Z,23.70
2018-08-11T12:13:36.830Z,23.90
2018-08-11T12:16:05.209Z,22.90
2018-08-11T12:18:33.552Z,21.10
2018-08-11T12:21:02.256Z,23.00
2018-08-11T12:23:30.603Z,24.40
2018-08-11T12:25:59.018Z,23.80
2018-08-11T12:28:27.387Z,23.70
2018-08-11T12:30:55.761Z,24.80
2018-08-11T12:33:24.094Z,23.80
2018-08-11T12:35:52.448Z,23.80
2018-08-11T12:38:20.835Z,23.70
2018-08-11T12:40:49.640Z,23.80
2018-08-11T12:43:18.072Z,23.80
2018-08-11T12:45:46.441Z,22.50
2018-08-11T12:48:14.813Z,23.90
2018-08-11T12:50:43.152Z,22.80
2018-08-11T12:53:11.517Z,23.20
2018-08-11T12:55:39.931Z,23.50
2018-08-11T12:58:08.265Z,21.80
2018-08-11T13:00:36.880Z,22.00
2018-08-11T13:03:05.303Z,22.00
2018-08-11T13:05:34.241Z,21.80
2018-08-11T13:08:02.579Z,22.10
2018-08-11T13:10:30.937Z,21.60
2018-08-11T13:12:59.324Z,22.20
2018-08-11T13:15:27.806Z,21.70
2018-08-11T13:17:56.246Z,22.10
2018-08-11T13:20:24.735Z,22.30
2018-08-11T13:22:53.120Z,22.40
2018-08-11T13:25:21.462Z,23.20
2018-08-11T13:27:49.906Z,23.30
2018-08-11T13:30:18.343Z,23.50
2018-08-11T13:32:46.705Z,23.40
2018-08-11T13:35:15.072Z,22.40
2018-08-11T13:37:43.450Z,22.70
2018-08-11T13:40:12.040Z,22.80
2018-08-11T13:42:40.916Z,22.10
2018-08-11T13:45:09.850Z,22.50
2018-08-11T13:47:38.194Z,22.40
2018-08-11T13:50:07.044Z,22.10
2018-08-11T13:52:35.373Z,21.60
2018-08-11T13:55:04.174Z,22.20
2018-08-11T13:57:32.508Z,23.00
2018-08-11T14:00:01.500Z,22.00
2018-08-11T14:02:29.888Z,22.10
2018-08-11T14:04:58.236Z,22.30
2018-08-11T14:07:26.591Z,21.40
2018-08-11T14:09:54.960Z,22.00
2018-08-11T14:12:23.351Z,21.80
2018-08-11T14:14:51.758Z,22.20
2018-08-11T14:17:20.279Z,23.10
2018-08-11T14:19:48.743Z,23.60
2018-08-11T14:22:17.137Z,21.90
2018-08-11T14:24:45.490Z,21.50
2018-08-11T14:27:13.975Z,21.10
2018-08-11T14:29:42.376Z,21.30
2018-08-11T14:32:10.727Z,21.60
2018-08-11T14:34:39.190Z,20.60
2018-08-11T14:37:07.521Z,20.30
2018-08-11T14:39:35.852Z,20.80
2018-08-11T14:42:04.375Z,20.50
2018-08-11T14:44:32.748Z,21.60
2018-08-11T14:47:01.091Z,21.70
2018-08-11T14:49:29.479Z,20.80
2018-08-11T14:51:57.931Z,20.80
2018-08-11T14:54:26.271Z,21.50
2018-08-11T14:56:54.785Z,21.20
2018-08-11T14:59:23.174Z,20.30
2018-08-11T15:01:51.527Z,20.10
2018-08-11T15:04:19.927Z,19.90
2018-08-11T15:06:48.387Z,19.70
2018-08-11T15:09:16.778Z,19.70
2018-08-11T15:11:45.137Z,20.00
2018-08-11T15:14:13.597Z,20.50
2018-08-11T15:16:42.007Z,19.30
2018-08-11T15:19:10.420Z,20.50
2018-08-11T15:21:39.479Z,19.80
2018-08-11T15:24:08.016Z,18.90
2018-08-11T15:26:36.401Z,19.80
2018-08-11T15:29:04.784Z,19.80
2018-08-11T15:31:33.173Z,19.80
2018-08-11T15:34:01.583Z,20.00
2018-08-11T15:36:29.967Z,20.30
2018-08-11T15:38:58.343Z,19.90
2018-08-11T15:41:26.835Z,20.00
2018-08-11T15:43:56.480Z,19.90
2018-08-11T15:46:24.821Z,20.10
2018-08-11T15:48:53.174Z,19.80
2018-08-11T15:51:21.564Z,19.70
2018-08-11T15:53:49.953Z,19.90
2018-08-11T15:56:18.359Z,19.60
2018-08-11T15:58:46.859Z,19.80
2018-08-11T16:01:15.280Z,20.10
2018-08-11T16:03:43.637Z,20.60
2018-08-11T16:06:11.995Z,20.20
2018-08-11T16:08:40.999Z,20.40
2018-08-11T16:11:09.397Z,20.10
2018-08-11T16:13:37.878Z,20.20
2018-08-11T16:16:06.260Z,20.80
2018-08-11T16:18:34.771Z,20.40
2018-08-11T16:21:03.091Z,20.70
2018-08-11T16:23:31.493Z,20.50
2018-08-11T16:25:59.867Z,20.70
2018-08-11T16:28:28.582Z,21.40
2018-08-11T16:30:57.033Z,19.90
2018-08-11T16:33:25.502Z,20.30
2018-08-11T16:35:53.905Z,20.30
2018-08-11T16:38:22.325Z,20.30
2018-08-11T16:40:50.656Z,20.50
2018-08-11T16:43:19.128Z,21.00
2018-08-11T16:45:47.520Z,21.10
2018-08-11T16:48:15.876Z,20.50
2018-08-11T16:50:44.244Z,20.30
2018-08-11T16:53:12.557Z,20.50
2018-08-11T16:55:41.087Z,20.60
2018-08-11T16:58:10.056Z,21.10
2018-08-11T17:00:38.402Z,20.40
2018-08-11T17:03:06.753Z,21.10
2018-08-11T17:05:35.099Z,21.00
2018-08-11T17:08:03.507Z,21.10
2018-08-11T17:10:31.880Z,21.10
2018-08-11T17:13:00.333Z,21.30
2018-08-11T17:15:28.729Z,21.70
2018-08-11T17:17:57.069Z,21.70
2018-08-11T17:20:25.472Z,22.00
2018-08-11T17:22:53.896Z,22.20
2018-08-11T17:25:22.351Z,22.20
2018-08-11T17:27:51.260Z,22.80
2018-08-11T17:30:19.711Z,22.60
2018-08-11T17:32:48.100Z,22.80
2018-08-11T17:35:16.476Z,23.20
2018-08-11T17:37:44.839Z,23.70
2018-08-11T17:40:13.186Z,23.10
2018-08-11T17:42:41.562Z,23.60
2018-08-11T17:45:09.930Z,24.40
2018-08-11T17:47:38.266Z,25.60
2018-08-11T17:50:07.036Z,25.50
2018-08-11T17:52:35.390Z,25.30
2018-08-11T17:55:03.789Z,25.80
2018-08-11T17:57:32.139Z,25.60
2018-08-11T18:00:00.535Z,26.00
2018-08-11T18:02:28.895Z,25.50
2018-08-11T18:04:57.297Z,26.10
2018-08-11T18:07:25.674Z,26.40
2018-08-11T18:09:54.033Z,26.10
2018-08-11T18:12:23.154Z,26.30
2018-08-11T18:14:51.476Z,26.30
2018-08-11T18:17:20.468Z,26.60
2018-08-11T18:19:49.171Z,26.40
2018-08-11T18:22:18.000Z,26.50
2018-08-11T18:24:46.353Z,26.60
2018-08-11T18:27:14.744Z,27.20
2018-08-11T18:29:43.928Z,27.10
2018-08-11T18:32:12.306Z,27.40
2018-08-11T18:34:40.674Z,27.30
2018-08-11T18:37:08.950Z,27.50
2018-08-11T18:39:37.412Z,28.00
2018-08-11T18:42:05.909Z,28.40
2018-08-11T18:44:34.236Z,28.20
2018-08-11T18:47:02.608Z,28.40
2018-08-11T18:49:31.014Z,28.60
2018-08-11T18:51:59.408Z,28.80
2018-08-11T18:54:27.848Z,28.90
2018-08-11T18:56:56.201Z,28.60
2018-08-11T18:59:24.690Z,28.80
2018-08-11T19:01:53.050Z,29.00
2018-08-11T19:04:21.461Z,29.30
2018-08-11T19:06:49.840Z,29.50
2018-08-11T19:09:18.343Z,29.40
2018-08-11T19:11:46.705Z,29.30
2018-08-11T19:14:15.069Z,29.60
2018-08-11T19:16:43.417Z,30.20
2018-08-11T19:19:11.788Z,30.10
2018-08-11T19:21:40.194Z,30.50
2018-08-11T19:24:08.601Z,30.30
2018-08-11T19:26:37.051Z,31.00
2018-08-11T19:29:05.485Z,30.70
2018-08-11T19:31:33.892Z,30.40
2018-08-11T19:34:02.336Z,30.20
2018-08-11T19:36:30.714Z,30.70
2018-08-11T19:38:59.636Z,30.90
2018-08-11T19:41:28.589Z,31.60
2018-08-11T19:43:57.756Z,32.00
2018-08-11T19:46:26.309Z,32.20
2018-08-11T19:48:54.646Z,32.40
2018-08-11T19:51:23.007Z,32.70
2018-08-11T19:53:51.329Z,33.60
2018-08-11T19:56:19.844Z,34.40
2018-08-11T19:58:48.217Z,35.20
2018-08-11T20:01:16.566Z,35.80
2018-08-11T20:03:44.977Z,36.00
2018-08-11T20:06:13.945Z,35.90
2018-08-11T20:08:43.132Z,35.50
2018-08-11T20:11:11.591Z,35.40
2018-08-11T20:13:40.035Z,35.10
2018-08-11T20:16:08.436Z,35.30
2018-08-11T20:18:36.788Z,35.60
2018-08-11T20:21:05.343Z,35.80
2018-08-11T20:23:34.329Z,36.20
2018-08-11T20:26:03.121Z,36.90
2018-08-11T20:28:31.612Z,37.40
2018-08-11T20:31:00.023Z,37.60
2018-08-11T20:33:28.681Z,37.00
2018-08-11T20:35:57.101Z,36.90
2018-08-11T20:38:26.192Z,37.00
2018-08-11T20:40:54.656Z,37.20
2018-08-11T20:43:23.082Z,37.60
2018-08-11T20:45:51.431Z,38.30
2018-08-11T20:48:19.791Z,38.20
2018-08-11T20:50:48.267Z,38.20
2018-08-11T20:53:16.721Z,38.10
2018-08-11T20:55:45.127Z,39.40
2018-08-11T20:58:14.099Z,39.30
2018-08-11T21:00:42.460Z,38.60
2018-08-11T21:03:11.863Z,38.80
2018-08-11T21:05:40.236Z,38.90
2018-08-11T21:08:08.646Z,39.30
2018-08-11T21:10:37.057Z,39.80
2018-08-11T21:13:05.499Z,40.40
2018-08-11T21:15:33.909Z,40.50
2018-08-11T21:18:02.238Z,40.20
2018-08-11T21:20:30.735Z,40.10
2018-08-11T21:22:59.135Z,40.40
2018-08-11T21:25:27.859Z,40.40
2018-08-11T21:27:56.273Z,40.30
2018-08-11T21:30:24.707Z,40.40
2018-08-11T21:32:53.051Z,40.40
2018-08-11T21:35:21.570Z,40.70
2018-08-11T21:37:49.967Z,40.40
2018-08-11T21:40:18.357Z,40.20
2018-08-11T21:42:46.709Z,40.30
2018-08-11T21:45:15.071Z,40.60
2018-08-11T21:47:43.462Z,41.20
2018-08-11T21:50:11.904Z,41.80
2018-08-11T21:52:40.438Z,42.40
2018-08-11T21:55:09.422Z,42.90
2018-08-11T21:57:38.264Z,43.00
2018-08-11T22:00:27.320Z,43.20
2018-08-11T22:02:55.767Z,43.50
2018-08-11T22:05:24.392Z,43.60
2018-08-11T22:07:52.848Z,43.60
2018-08-11T22:10:21.443Z,43.30
2018-08-11T22:12:49.848Z,43.00
2018-08-11T22:15:19.982Z,43.00
2018-08-11T22:17:49.028Z,43.10
2018-08-11T22:20:17.508Z,43.30
2018-08-11T22:22:45.998Z,43.40
2018-08-11T22:25:14.786Z,43.40
2018-08-11T22:27:43.977Z,43.40
2018-08-11T22:30:12.479Z,43.30
2018-08-11T22:32:40.849Z,43.30
2018-08-11T22:35:10.688Z,43.60
2018-08-11T22:37:39.144Z,43.80
2018-08-11T22:40:08.222Z,44.40
2018-08-11T22:42:37.420Z,44.70
2018-08-11T22:45:08.391Z,45.00
2018-08-11T22:47:36.871Z,45.30
2018-08-11T22:50:07.156Z,45.40
2018-08-11T22:52:35.697Z,45.40
2018-08-11T22:55:04.296Z,45.30
2018-08-11T22:57:32.729Z,45.50
2018-08-11T23:00:01.118Z,45.50
2018-08-11T23:02:29.570Z,45.80
2018-08-11T23:04:58.051Z,45.80
2018-08-11T23:07:26.432Z,46.30
2018-08-11T23:09:54.871Z,46.40
2018-08-11T23:12:23.316Z,46.30
2018-08-11T23:14:51.686Z,46.30
2018-08-11T23:17:20.094Z,46.30
2018-08-11T23:19:48.444Z,46.20
2018-08-11T23:22:16.855Z,45.70
2018-08-11T23:24:45.224Z,46.20
2018-08-11T23:27:13.681Z,46.90
2018-08-11T23:29:42.075Z,46.10
2018-08-11T23:32:10.449Z,46.00
2018-08-11T23:34:38.956Z,46.50
2018-08-11T23:37:07.279Z,46.60
2018-08-11T23:39:35.680Z,46.60
2018-08-11T23:42:04.094Z,46.70
2018-08-11T23:44:32.521Z,46.50
2018-08-11T23:47:00.907Z,46.70
2018-08-11T23:49:29.278Z,46.70
2018-08-11T23:51:57.624Z,46.80
2018-08-11T23:54:26.040Z,47.00
2018-08-11T23:56:54.416Z,47.00
2018-08-11T23:59:22.818Z,47.10
